Time;durP1;ratioP1;P1;durP2;ratioP2;P2;SDS_P1;SDS_P2;PMS_P1;PMS_P2;Temp;Humidity;BMP_temperature;BMP_pressure;BME280_temperature;BME280_humidity;BME280_pressure;Samples;Min_cycle;Max_cycle;Signal;HPM_P1;HPM_P2
2022/09/01 00:01:48;;;;;;;15.20;13.82;;;;;;;18.69;68.51;94727.66;5003755;28;20244;-69
2022/09/01 00:04:18;;;;;;;15.20;13.77;;;;;;;18.69;68.05;94727.66;5004610;28;20241;-62
2022/09/01 00:06:44;;;;;;;15.63;14.30;;;;;;;18.36;68.91;94733.84;4999297;28;20214;-69
2022/09/01 00:09:13;;;;;;;14.73;13.43;;;;;;;18.59;67.98;94721.94;5005509;28;20203;-69
2022/09/01 00:11:41;;;;;;;13.93;12.77;;;;;;;18.55;68.38;94713.56;5002958;28;20219;-70
2022/09/01 00:14:08;;;;;;;13.70;12.60;;;;;;;18.67;67.29;94724.38;5007426;28;20223;-69
2022/09/01 00:16:33;;;;;;;14.27;13.02;;;;;;;18.74;66.42;94722.53;5009189;28;20690;-69
2022/09/01 00:18:59;;;;;;;14.77;13.45;;;;;;;18.78;65.75;94714.94;5004463;28;20235;-69
2022/09/01 00:21:31;;;;;;;14.75;13.48;;;;;;;18.75;65.72;94710.84;5004684;28;20215;-69
2022/09/01 00:23:58;;;;;;;13.63;12.45;;;;;;;18.77;65.74;94716.81;5008468;28;20216;-69
2022/09/01 00:26:24;;;;;;;15.00;13.60;;;;;;;18.77;65.85;94708.81;5008088;28;20231;-69
2022/09/01 00:28:50;;;;;;;14.93;13.73;;;;;;;18.79;66.07;94709.44;5006987;28;20623;-69
2022/09/01 00:31:17;;;;;;;16.30;14.73;;;;;;;18.75;67.05;94712.72;5011874;28;20254;-69
2022/09/01 00:33:43;;;;;;;16.90;15.43;;;;;;;18.77;67.72;94722.13;5001580;28;20226;-69
2022/09/01 00:36:09;;;;;;;17.73;16.10;;;;;;;18.75;68.65;94715.38;5008085;28;21047;-69
2022/09/01 00:38:34;;;;;;;18.52;16.92;;;;;;;18.75;69.09;94721.50;5008623;28;20222;-70
2022/09/01 00:41:00;;;;;;;18.55;16.85;;;;;;;18.73;69.58;94729.66;5011284;28;20233;-69
2022/09/01 00:43:45;;;;;;;19.45;17.75;;;;;;;18.56;70.38;94725.03;5009930;28;20306;-69
2022/09/01 00:46:18;;;;;;;18.52;16.70;;;;;;;18.56;70.73;94720.50;5006413;28;20226;-70
2022/09/01 00:48:47;;;;;;;19.45;17.45;;;;;;;18.56;70.65;94735.66;5007493;28;20210;-68
2022/09/01 00:51:14;;;;;;;18.33;16.63;;;;;;;18.07;72.99;94724.47;5013374;28;20224;-68
2022/09/01 00:53:42;;;;;;;19.90;18.20;;;;;;;18.46;71.40;94734.25;5012882;28;20227;-68
2022/09/01 00:56:09;;;;;;;19.08;17.40;;;;;;;18.69;70.07;94738.31;5009223;28;20234;-68
2022/09/01 00:58:36;;;;;;;18.98;17.35;;;;;;;18.66;69.88;94733.41;5010345;28;20227;-68
2022/09/01 01:01:03;;;;;;;17.85;16.52;;;;;;;18.60;70.18;94732.38;5011555;28;20218;-68
2022/09/01 01:03:31;;;;;;;18.20;16.42;;;;;;;18.44;70.37;94735.47;5006189;28;20511;-68
2022/09/01 01:06:02;;;;;;;18.65;17.05;;;;;;;18.44;70.99;94738.97;5007271;28;20226;-68
2022/09/01 01:08:32;;;;;;;18.33;16.83;;;;;;;18.20;71.78;94732.44;5010157;28;20273;-68
2022/09/01 01:11:03;;;;;;;18.83;17.05;;;;;;;18.29;71.80;94735.72;5011224;28;20241;-68
2022/09/01 01:13:30;;;;;;;17.42;15.82;;;;;;;18.30;71.20;94740.00;5004458;28;20316;-68
2022/09/01 01:15:57;;;;;;;18.55;16.75;;;;;;;18.08;72.12;94744.72;5007346;28;20227;-67
2022/09/01 01:18:23;;;;;;;18.08;16.27;;;;;;;17.87;73.35;94740.41;5009083;28;20231;-68
2022/09/01 01:24:21;;;;;;;17.98;16.40;;;;;;;18.07;72.27;94735.94;4968131;28;20592;-68
2022/09/01 01:26:47;;;;;;;17.63;15.90;;;;;;;18.12;72.49;94737.13;4877147;29;20301;-68
2022/09/01 01:29:14;;;;;;;17.77;16.23;;;;;;;18.12;72.15;94731.81;4885817;29;20230;-68
2022/09/01 01:31:40;;;;;;;17.98;16.17;;;;;;;18.13;72.23;94738.78;4896590;29;20226;-68
2022/09/01 01:34:06;;;;;;;17.27;15.85;;;;;;;18.18;71.76;94736.34;4891542;29;20246;-68
2022/09/01 01:36:35;;;;;;;18.25;16.55;;;;;;;18.27;71.59;94735.91;4894230;29;20219;-68
2022/09/01 01:39:06;;;;;;;18.27;16.58;;;;;;;18.26;71.59;94738.78;4898612;29;20233;-68
2022/09/01 01:41:33;;;;;;;19.15;17.48;;;;;;;18.17;71.88;94734.69;4872695;29;20231;-67
2022/09/01 01:44:03;;;;;;;18.73;16.95;;;;;;;18.25;71.36;94729.97;4876930;29;20310;-68
2022/09/01 01:46:30;;;;;;;18.42;16.80;;;;;;;18.23;70.47;94739.16;4892110;29;20322;-68
2022/09/01 01:48:56;;;;;;;16.15;14.63;;;;;;;18.24;69.61;94746.97;4880742;29;20265;-68
2022/09/01 01:51:27;;;;;;;16.33;14.90;;;;;;;18.41;68.25;94752.66;4881046;29;20330;-68
2022/09/01 01:53:54;;;;;;;17.10;15.55;;;;;;;18.28;68.31;94750.03;4885753;29;20254;-69
2022/09/01 01:56:24;;;;;;;16.88;15.38;;;;;;;18.23;68.20;94753.31;4877014;29;20235;-68
2022/09/01 01:58:53;;;;;;;15.48;14.18;;;;;;;18.15;67.72;94756.19;4896112;29;20686;-69
2022/09/01 02:01:20;;;;;;;15.43;14.13;;;;;;;18.13;67.29;94762.75;4893962;29;21067;-67
2022/09/01 02:03:46;;;;;;;14.20;13.05;;;;;;;17.98;66.94;94766.41;4954105;28;20348;-67
2022/09/01 02:06:12;;;;;;;16.35;13.73;;;;;;;17.87;67.00;94760.88;5011097;28;20719;-67
2022/09/01 02:08:39;;;;;;;14.85;13.45;;;;;;;17.81;67.16;94762.50;5009520;28;20246;-67
2022/09/01 02:11:06;;;;;;;16.25;14.80;;;;;;;17.88;66.90;94762.50;4994496;28;20632;-67
2022/09/01 02:13:32;;;;;;;15.68;14.10;;;;;;;17.87;66.58;94761.69;5009137;28;20315;-67
2022/09/01 02:16:11;;;;;;;15.65;14.25;;;;;;;17.85;66.96;94769.03;5008324;28;20295;-67
2022/09/01 02:18:41;;;;;;;15.07;13.85;;;;;;;17.82;66.96;94761.47;5009084;28;20257;-67
2022/09/01 02:21:12;;;;;;;15.50;14.20;;;;;;;17.82;67.09;94769.44;5008987;28;20199;-67
2022/09/01 02:23:39;;;;;;;16.10;14.50;;;;;;;17.84;67.19;94757.59;5007399;28;20249;-67
2022/09/01 02:26:07;;;;;;;15.35;13.82;;;;;;;17.84;67.14;94768.22;4993130;28;20714;-67
2022/09/01 02:28:35;;;;;;;14.93;13.43;;;;;;;17.88;66.92;94768.63;5020841;28;20788;-67
2022/09/01 02:31:03;;;;;;;16.83;15.32;;;;;;;17.68;67.77;94765.94;5006081;28;20223;-67
2022/09/01 02:33:30;;;;;;;14.90;13.70;;;;;;;17.56;68.63;94764.88;5006410;28;20559;-67
2022/09/01 02:35:59;;;;;;;16.10;14.80;;;;;;;17.63;68.44;94760.38;5007377;28;20203;-67
2022/09/01 02:38:27;;;;;;;16.55;15.05;;;;;;;17.62;68.22;94756.91;5009012;28;20250;-67
2022/09/01 02:40:57;;;;;;;14.90;13.77;;;;;;;17.51;68.72;94765.50;5010624;28;20475;-68
2022/09/01 02:43:26;;;;;;;15.63;14.23;;;;;;;17.55;68.77;94752.59;5004524;28;20281;-67
2022/09/01 02:45:54;;;;;;;14.60;13.32;;;;;;;17.64;68.38;94748.72;5016338;28;20259;-67
2022/09/01 02:48:25;;;;;;;14.50;13.20;;;;;;;17.69;68.04;94750.78;5007279;28;20215;-67
2022/09/01 02:50:51;;;;;;;14.30;13.00;;;;;;;17.69;67.90;94746.28;5003631;28;20219;-67
2022/09/01 02:53:16;;;;;;;14.48;13.27;;;;;;;17.66;68.31;94748.53;5010017;28;20226;-67
2022/09/01 02:55:42;;;;;;;15.80;14.40;;;;;;;17.67;68.14;94744.84;5005942;28;20239;-67
2022/09/01 02:58:15;;;;;;;15.98;14.38;;;;;;;17.62;68.30;94735.66;5008053;28;20223;-67
2022/09/01 03:00:41;;;;;;;14.18;12.98;;;;;;;17.39;69.09;94740.50;5008224;28;20218;-67
2022/09/01 03:03:07;;;;;;;15.27;13.88;;;;;;;17.52;68.62;94737.06;5007801;28;20195;-67
2022/09/01 03:05:35;;;;;;;15.20;13.95;;;;;;;17.50;68.48;94731.94;5009444;28;20321;-67
2022/09/01 03:08:09;;;;;;;15.00;13.70;;;;;;;17.55;68.29;94736.66;5008479;28;20222;-67
2022/09/01 03:10:38;;;;;;;15.88;14.38;;;;;;;17.48;68.34;94741.97;5009355;28;20229;-67
2022/09/01 03:13:15;;;;;;;15.65;14.13;;;;;;;17.49;68.34;94748.91;5009628;28;20410;-67
2022/09/01 03:15:42;;;;;;;17.15;15.45;;;;;;;17.49;68.46;94742.78;5006026;28;20210;-67
2022/09/01 03:18:10;;;;;;;16.90;15.30;;;;;;;17.48;68.62;94747.28;4999549;28;20242;-67
2022/09/01 03:20:38;;;;;;;18.05;16.27;;;;;;;17.51;68.63;94730.94;5007219;28;20214;-66
2022/09/01 03:23:07;;;;;;;17.27;15.50;;;;;;;17.54;68.38;94732.38;5012465;28;20250;-66
2022/09/01 03:25:35;;;;;;;15.68;14.30;;;;;;;17.47;68.70;94735.00;5008470;28;20226;-67
2022/09/01 03:28:01;;;;;;;15.93;14.38;;;;;;;17.41;69.24;94743.78;5010618;28;20230;-67
2022/09/01 03:30:32;;;;;;;17.40;15.80;;;;;;;17.53;68.65;94750.13;5008637;28;20565;-67
2022/09/01 03:33:00;;;;;;;16.48;15.07;;;;;;;17.54;68.87;94749.13;5008507;28;20207;-66
2022/09/01 03:35:27;;;;;;;17.58;15.80;;;;;;;17.54;68.53;94745.66;5002671;28;20231;-67
2022/09/01 03:37:57;;;;;;;18.23;15.75;;;;;;;17.51;68.55;94752.19;5003458;28;20723;-67
2022/09/01 03:40:26;;;;;;;17.20;15.60;;;;;;;17.39;68.77;94753.78;5006087;28;20229;-67
2022/09/01 03:42:52;;;;;;;17.35;15.73;;;;;;;17.51;68.39;94746.88;5009693;28;20225;-67
2022/09/01 03:45:19;;;;;;;17.40;15.27;;;;;;;17.53;67.55;94750.13;5004230;28;20199;-67
2022/09/01 03:47:46;;;;;;;16.55;15.15;;;;;;;17.52;67.62;94751.16;5009207;28;20669;-67
2022/09/01 03:50:21;;;;;;;18.75;16.48;;;;;;;17.64;67.78;94751.38;5010238;28;20280;-67
2022/09/01 03:52:53;;;;;;;17.88;16.17;;;;;;;17.64;67.84;94752.22;5010070;28;20226;-67
2022/09/01 03:55:25;;;;;;;17.90;16.30;;;;;;;17.37;68.59;94754.00;5008576;28;20215;-67
2022/09/01 03:58:00;;;;;;;17.52;15.95;;;;;;;17.36;68.93;94748.88;5003187;28;20222;-66
2022/09/01 04:00:28;;;;;;;17.30;15.85;;;;;;;17.47;68.66;94737.66;5008059;28;20210;-66
2022/09/01 04:02:57;;;;;;;18.35;16.55;;;;;;;17.31;69.51;94751.31;5017344;28;20206;-67
2022/09/01 04:05:27;;;;;;;17.67;16.00;;;;;;;17.26;69.67;94754.56;5006191;28;20229;-67
2022/09/01 04:07:57;;;;;;;16.52;14.82;;;;;;;17.18;70.16;94755.56;5007389;28;20353;-66
2022/09/01 04:10:23;;;;;;;16.80;15.45;;;;;;;17.18;70.71;94754.72;5006092;28;20249;-66
2022/09/01 04:12:49;;;;;;;17.25;15.65;;;;;;;17.32;69.95;94755.59;5007980;28;20219;-67
2022/09/01 04:15:17;;;;;;;17.00;15.40;;;;;;;17.58;69.25;94753.00;5008449;28;20233;-66
2022/09/01 04:18:08;;;;;;;17.70;16.20;;;;;;;17.56;68.87;94748.91;5004892;28;20227;-66
2022/09/01 04:20:38;;;;;;;17.52;16.00;;;;;;;17.59;68.99;94753.84;4986533;28;20242;-66
2022/09/01 04:23:10;;;;;;;17.42;15.60;;;;;;;17.60;68.96;94756.28;4988297;28;20306;-66
2022/09/01 04:25:37;;;;;;;18.92;17.33;;;;;;;17.57;69.76;94753.22;4987217;28;20452;-66
2022/09/01 04:28:11;;;;;;;19.02;17.42;;;;;;;17.57;70.07;94747.91;4982375;28;20256;-66
2022/09/01 04:30:39;;;;;;;19.90;18.02;;;;;;;17.34;71.34;94748.25;4980793;28;20207;-67
2022/09/01 04:33:06;;;;;;;19.38;17.48;;;;;;;17.38;71.60;94736.22;4985082;28;20377;-66
2022/09/01 04:35:36;;;;;;;18.83;16.95;;;;;;;17.35;71.85;94752.56;4989012;28;20223;-66
2022/09/01 04:38:01;;;;;;;20.63;18.52;;;;;;;17.50;71.21;94739.91;4983402;28;20210;-66
2022/09/01 04:40:27;;;;;;;21.30;19.20;;;;;;;17.58;71.00;94750.34;4987274;28;20888;-66
2022/09/01 04:42:52;;;;;;;20.67;18.55;;;;;;;17.39;72.25;94751.13;4987603;28;20232;-65
2022/09/01 04:45:23;;;;;;;20.48;18.38;;;;;;;17.49;72.24;94750.75;4981927;28;20207;-65
2022/09/01 04:47:49;;;;;;;21.30;19.27;;;;;;;17.67;71.14;94750.16;4982906;28;20235;-65
2022/09/01 04:50:16;;;;;;;21.60;19.45;;;;;;;17.59;71.75;94749.34;4989500;28;20223;-65
2022/09/01 04:52:46;;;;;;;20.50;18.70;;;;;;;17.70;71.39;94755.09;4985946;28;20235;-66
2022/09/01 04:55:16;;;;;;;20.20;18.33;;;;;;;17.84;71.04;94749.59;4979674;28;20282;-66
2022/09/01 04:57:46;;;;;;;21.30;17.98;;;;;;;17.97;70.22;94750.66;4979469;28;20234;-66
2022/09/01 05:00:23;;;;;;;21.38;19.20;;;;;;;18.04;69.57;94744.31;4994104;28;20208;-66
2022/09/01 05:03:02;;;;;;;19.90;18.05;;;;;;;18.09;69.36;94743.69;4982116;28;20221;-66
2022/09/01 05:05:28;;;;;;;20.25;18.25;;;;;;;18.28;68.37;94744.69;4983846;28;20317;-66
2022/09/01 05:07:54;;;;;;;19.35;17.45;;;;;;;18.32;67.85;94751.25;4981546;28;20307;-66
2022/09/01 05:10:21;;;;;;;18.52;16.67;;;;;;;18.37;66.55;94746.13;4985003;28;20231;-65
2022/09/01 05:12:48;;;;;;;18.98;17.27;;;;;;;18.44;65.79;94746.97;4980331;28;20227;-66
2022/09/01 05:15:16;;;;;;;18.42;16.45;;;;;;;18.40;65.23;94750.22;4981247;28;20200;-66
2022/09/01 05:17:42;;;;;;;19.50;17.77;;;;;;;18.38;64.99;94746.94;4984475;28;20211;-66
2022/09/01 05:20:09;;;;;;;19.67;17.75;;;;;;;18.32;65.52;94745.94;5000386;28;20250;-66
2022/09/01 05:22:37;;;;;;;21.00;18.88;;;;;;;18.29;66.20;94746.34;5006882;28;20302;-66
2022/09/01 05:25:11;;;;;;;20.88;18.88;;;;;;;18.59;65.73;94743.25;5011744;28;20234;-66
2022/09/01 05:27:41;;;;;;;26.23;23.42;;;;;;;18.57;66.89;94745.28;5006458;28;20226;-64
2022/09/01 05:30:07;;;;;;;25.27;22.58;;;;;;;18.69;66.56;94744.44;5003743;28;20290;-65
2022/09/01 05:32:36;;;;;;;23.88;21.35;;;;;;;18.42;67.07;94743.69;5012334;28;20764;-66
2022/09/01 05:35:07;;;;;;;18.45;16.65;;;;;;;18.52;66.12;94732.59;5009274;28;20234;-66
2022/09/01 05:37:36;;;;;;;17.90;16.20;;;;;;;18.61;65.87;94743.84;5005534;28;20222;-69
2022/09/01 05:40:05;;;;;;;18.55;16.70;;;;;;;18.66;66.00;94738.72;4988329;28;20285;-68
2022/09/01 05:42:34;;;;;;;19.48;17.67;;;;;;;18.68;66.02;94728.66;5016261;28;20570;-68
2022/09/01 05:45:00;;;;;;;19.75;17.83;;;;;;;18.82;65.23;94738.31;5010430;28;20209;-68
2022/09/01 05:47:27;;;;;;;20.17;18.33;;;;;;;18.52;66.18;94741.41;5008911;28;20666;-68
2022/09/01 05:49:57;;;;;;;20.73;18.77;;;;;;;18.59;66.52;94743.25;5010928;28;20230;-68
2022/09/01 05:52:25;;;;;;;20.98;18.80;;;;;;;18.62;66.50;94742.81;5009314;28;20226;-68
2022/09/01 05:54:50;;;;;;;22.83;20.58;;;;;;;18.82;66.13;94740.13;5010260;28;20223;-69
2022/09/01 05:57:18;;;;;;;24.27;21.85;;;;;;;18.86;66.32;94749.34;5008317;28;20211;-69
2022/09/01 05:59:45;;;;;;;22.98;20.77;;;;;;;18.92;66.30;94749.34;5006493;28;20227;-69
2022/09/01 06:02:11;;;;;;;25.60;23.10;;;;;;;18.89;66.17;94749.72;5008312;28;20230;-68
2022/09/01 06:04:42;;;;;;;25.98;23.48;;;;;;;18.93;66.41;94747.50;5009141;28;20298;-68
2022/09/01 06:07:13;;;;;;;25.35;23.00;;;;;;;18.71;67.33;94738.91;5022144;28;20281;-68
2022/09/01 06:09:44;;;;;;;28.25;25.23;;;;;;;18.88;66.92;94739.31;5011922;28;20215;-68
2022/09/01 06:12:16;;;;;;;25.95;23.38;;;;;;;18.88;66.96;94736.66;5003679;28;20204;-68
2022/09/01 06:14:42;;;;;;;31.80;26.50;;;;;;;18.99;66.39;94737.84;5008505;28;20226;-67
2022/09/01 06:17:10;;;;;;;30.67;27.52;;;;;;;18.89;66.99;94739.06;5014844;28;20250;-67
2022/09/01 06:19:36;;;;;;;31.80;28.33;;;;;;;18.81;67.08;94735.84;5004732;28;20318;-68
2022/09/01 06:22:02;;;;;;;30.90;27.73;;;;;;;18.33;69.25;94734.25;5009276;28;20223;-69
2022/09/01 06:24:28;;;;;;;30.77;27.60;;;;;;;18.45;68.85;94734.47;5007006;28;20257;-68
2022/09/01 06:26:53;;;;;;;31.40;27.73;;;;;;;18.59;68.38;94733.41;5004379;28;20616;-68
2022/09/01 06:29:19;;;;;;;33.60;28.40;;;;;;;18.47;69.27;94724.41;5002912;28;20237;-68
2022/09/01 06:31:51;;;;;;;31.30;27.63;;;;;;;18.60;69.03;94735.03;4999224;28;20220;-69
2022/09/01 06:34:17;;;;;;;30.75;27.45;;;;;;;18.67;68.62;94735.03;4997224;28;20223;-69
2022/09/01 06:36:45;;;;;;;31.63;27.88;;;;;;;18.56;69.30;94731.16;4998609;28;20249;-71
2022/09/01 06:39:18;;;;;;;31.35;27.98;;;;;;;18.77;68.59;94730.13;5002153;28;20627;-71
2022/09/01 06:41:46;;;;;;;28.95;26.00;;;;;;;18.83;68.26;94723.13;5003508;28;20222;-71
2022/09/01 06:44:13;;;;;;;31.55;26.83;;;;;;;18.99;67.93;94721.84;5005823;28;20219;-69
2022/09/01 06:46:39;;;;;;;29.65;25.15;;;;;;;19.24;67.13;94725.41;4997856;28;20230;-69
2022/09/01 06:49:04;;;;;;;27.73;24.90;;;;;;;19.30;66.71;94721.06;5000896;28;20238;-69
2022/09/01 06:51:30;;;;;;;27.83;24.92;;;;;;;19.39;66.44;94723.28;5001111;28;20203;-69
2022/09/01 06:53:58;;;;;;;34.03;27.05;;;;;;;19.16;67.13;94723.84;4999978;28;20215;-70
2022/09/01 06:56:28;;;;;;;30.40;27.00;;;;;;;18.84;68.38;94732.75;5000560;28;20233;-69
2022/09/01 06:58:54;;;;;;;34.30;29.88;;;;;;;19.21;67.33;94722.38;5003919;28;20230;-70
2022/09/01 07:01:21;;;;;;;30.95;27.15;;;;;;;19.33;66.92;94729.50;5009928;28;20250;-69
2022/09/01 07:03:50;;;;;;;29.33;26.23;;;;;;;19.15;66.99;94727.50;5009986;28;20745;-69
2022/09/01 07:06:17;;;;;;;28.75;25.65;;;;;;;19.21;67.08;94736.50;5012232;28;20202;-69
2022/09/01 07:08:48;;;;;;;29.52;26.38;;;;;;;19.09;67.71;94725.69;5007873;28;20241;-69
2022/09/01 07:11:25;;;;;;;28.85;25.67;;;;;;;19.43;66.60;94736.19;5006019;28;20898;-70
2022/09/01 07:13:54;;;;;;;29.08;26.13;;;;;;;19.57;66.04;94730.59;5005521;28;20223;-70
2022/09/01 07:16:22;;;;;;;30.58;27.23;;;;;;;19.47;65.90;94729.41;5008408;28;20229;-70
2022/09/01 07:18:49;;;;;;;30.67;26.60;;;;;;;19.36;66.34;94734.38;5008275;28;20230;-69
2022/09/01 07:21:15;;;;;;;29.05;26.00;;;;;;;19.43;66.64;94722.84;5008788;28;20289;-69
2022/09/01 07:23:42;;;;;;;29.98;27.00;;;;;;;19.41;66.72;94733.75;5008316;28;20799;-69
2022/09/01 07:26:09;;;;;;;30.08;26.95;;;;;;;19.28;67.12;94726.63;5011341;28;20231;-68
2022/09/01 07:28:35;;;;;;;32.63;29.20;;;;;;;19.38;66.88;94723.53;5004176;28;20260;-69
2022/09/01 07:31:03;;;;;;;29.55;26.67;;;;;;;19.54;65.88;94727.50;5006814;28;20762;-69
2022/09/01 07:33:32;;;;;;;31.35;28.05;;;;;;;19.77;65.46;94719.81;5010771;28;20797;-63
2022/09/01 07:35:58;;;;;;;28.42;25.33;;;;;;;19.86;65.04;94728.38;5009948;28;20257;-64
2022/09/01 07:38:24;;;;;;;30.85;27.80;;;;;;;19.90;65.50;94728.75;5008052;28;20582;-64
2022/09/01 07:40:52;;;;;;;29.35;26.30;;;;;;;20.11;64.37;94715.03;5004525;28;20226;-64
2022/09/01 07:43:24;;;;;;;28.83;26.10;;;;;;;20.16;64.21;94717.06;5007425;28;20242;-65
2022/09/01 07:45:54;;;;;;;28.45;25.63;;;;;;;20.34;63.78;94716.28;5008032;28;20253;-64
2022/09/01 07:48:22;;;;;;;27.38;24.75;;;;;;;20.43;62.97;94720.31;5009534;28;20584;-64
2022/09/01 07:50:51;;;;;;;27.63;24.45;;;;;;;20.54;62.76;94716.94;5010120;28;20700;-63
2022/09/01 07:53:21;;;;;;;25.92;23.52;;;;;;;20.53;62.05;94711.78;5021269;28;20221;-63
2022/09/01 07:55:49;;;;;;;24.75;22.45;;;;;;;20.62;61.85;94710.50;5006447;28;20230;-64
2022/09/01 07:58:16;;;;;;;24.33;21.70;;;;;;;20.74;61.61;94714.06;5005334;28;20301;-64
2022/09/01 08:00:46;;;;;;;23.70;21.40;;;;;;;20.85;61.36;94715.16;5006868;28;20230;-63
2022/09/01 08:03:13;;;;;;;21.92;19.83;;;;;;;20.93;61.64;94721.06;5009671;28;20191;-63
2022/09/01 08:05:38;;;;;;;24.10;21.58;;;;;;;20.96;61.82;94722.47;5007140;28;20233;-74
2022/09/01 08:08:04;;;;;;;25.60;23.02;;;;;;;21.17;60.91;94723.88;5007192;28;20219;-73
2022/09/01 08:10:29;;;;;;;27.65;24.73;;;;;;;21.06;60.33;94720.09;5008639;28;20292;-73
2022/09/01 08:12:55;;;;;;;28.08;22.83;;;;;;;21.18;59.95;94722.00;5006770;28;20227;-74
2022/09/01 08:15:21;;;;;;;25.30;22.83;;;;;;;21.27;60.19;94723.31;5005559;28;20207;-75
2022/09/01 08:17:47;;;;;;;26.92;24.35;;;;;;;21.47;60.10;94707.84;5007293;28;20229;-73
2022/09/01 08:20:12;;;;;;;24.98;22.75;;;;;;;21.54;59.93;94702.41;5006294;28;20292;-74
2022/09/01 08:22:38;;;;;;;26.00;23.42;;;;;;;21.59;59.81;94710.56;5008575;28;20312;-74
2022/09/01 08:25:06;;;;;;;26.05;23.63;;;;;;;21.64;59.14;94712.56;5007587;28;20246;-74
2022/09/01 08:27:35;;;;;;;25.10;22.55;;;;;;;21.64;59.02;94717.91;5012031;28;20290;-69
2022/09/01 08:30:03;;;;;;;28.10;25.00;;;;;;;21.60;58.58;94706.88;5008409;28;20698;-68
2022/09/01 08:32:29;;;;;;;26.52;23.85;;;;;;;21.57;58.68;94708.13;5003036;28;20214;-68
2022/09/01 08:34:55;;;;;;;25.20;22.70;;;;;;;21.64;58.63;94712.56;5009128;28;20223;-69
2022/09/01 08:37:22;;;;;;;25.13;22.80;;;;;;;21.87;57.73;94709.97;5008756;28;20219;-68
2022/09/01 08:39:48;;;;;;;23.35;21.15;;;;;;;21.91;57.33;94705.75;5003414;28;20265;-69
2022/09/01 08:42:19;;;;;;;22.77;20.58;;;;;;;21.91;57.30;94703.09;5006968;28;20298;-69
2022/09/01 08:45:04;;;;;;;22.02;19.80;;;;;;;22.07;57.03;94701.59;5005592;28;20270;-69
2022/09/01 08:47:30;;;;;;;20.48;18.50;;;;;;;22.14;55.62;94696.16;5005381;28;20223;-68
2022/09/01 08:49:57;;;;;;;21.25;18.88;;;;;;;22.20;55.37;94700.59;5006812;28;20313;-68
2022/09/01 08:52:33;;;;;;;20.05;17.92;;;;;;;22.33;54.69;94692.34;5007335;28;20226;-68
2022/09/01 08:55:11;;;;;;;20.75;18.55;;;;;;;22.31;54.77;94693.63;5007416;28;20289;-69
2022/09/01 08:57:40;;;;;;;22.10;19.80;;;;;;;22.55;54.63;94687.22;5004913;28;20236;-70
2022/09/01 09:00:09;;;;;;;20.05;18.02;;;;;;;22.58;55.02;94680.56;5001763;28;20218;-69
2022/09/01 09:02:44;;;;;;;19.60;17.60;;;;;;;22.65;55.28;94678.59;5013643;28;20215;-68
2022/09/01 09:05:28;;;;;;;21.73;19.50;;;;;;;22.86;54.87;94679.84;5003955;28;20222;-70
2022/09/01 09:08:27;;;;;;;20.83;18.83;;;;;;;23.00;54.46;94667.00;5003143;28;20226;-69
2022/09/01 09:11:13;;;;;;;20.60;17.88;;;;;;;23.14;53.87;94664.88;5007431;28;20708;-67
2022/09/01 09:13:38;;;;;;;19.67;17.67;;;;;;;23.30;53.24;94672.97;5008092;28;20229;-67
2022/09/01 09:16:22;;;;;;;18.67;16.70;;;;;;;23.28;53.37;94672.41;5008551;28;20223;-68
2022/09/01 09:18:59;;;;;;;19.10;17.15;;;;;;;23.54;51.93;94662.94;5003395;28;20231;-68
2022/09/01 09:21:34;;;;;;;19.73;17.70;;;;;;;23.63;51.34;94660.69;5006129;28;20199;-68
2022/09/01 09:24:09;;;;;;;21.63;17.90;;;;;;;23.86;51.29;94651.69;5010870;28;20695;-69
2022/09/01 09:26:34;;;;;;;18.02;16.25;;;;;;;23.83;50.62;94659.44;5006834;28;20223;-68
2022/09/01 09:29:00;;;;;;;18.25;16.50;;;;;;;23.85;50.73;94665.38;5011919;28;20285;-68
2022/09/01 09:31:36;;;;;;;17.77;16.08;;;;;;;24.14;49.92;94656.19;5014138;28;20230;-68
2022/09/01 09:34:02;;;;;;;17.13;15.52;;;;;;;24.24;48.89;94646.66;5010873;28;20225;-68
2022/09/01 09:36:33;;;;;;;17.42;15.55;;;;;;;24.34;48.87;94654.88;5010016;28;20199;-68
2022/09/01 09:39:11;;;;;;;16.35;14.57;;;;;;;24.63;48.78;94652.91;5013600;28;20292;-67
2022/09/01 09:41:39;;;;;;;16.77;15.07;;;;;;;24.71;47.42;94651.66;5008145;28;20253;-68
2022/09/01 09:44:17;;;;;;;18.88;16.92;;;;;;;25.03;46.66;94646.41;5021484;28;20254;-68
2022/09/01 09:46:46;;;;;;;19.58;17.58;;;;;;;24.93;46.69;94639.03;5006133;28;20227;-69
2022/09/01 09:49:23;;;;;;;18.63;16.20;;;;;;;24.96;46.61;94649.28;5015917;28;20306;-68
2022/09/01 09:52:02;;;;;;;15.85;14.38;;;;;;;25.04;46.60;94645.34;5009293;28;20207;-68
2022/09/01 09:54:29;;;;;;;15.57;14.18;;;;;;;24.77;47.02;94643.38;5007870;28;20334;-68
2022/09/01 09:57:06;;;;;;;16.65;14.90;;;;;;;24.98;46.05;94643.66;5008592;28;20226;-69
2022/09/01 09:59:37;;;;;;;16.00;13.63;;;;;;;24.95;46.06;94647.66;5007245;28;20223;-69
2022/09/01 10:02:25;;;;;;;16.83;15.40;;;;;;;24.39;46.38;94636.13;5009007;28;20233;-68
2022/09/01 10:04:51;;;;;;;17.48;14.98;;;;;;;24.04;47.12;94639.09;5018824;28;20305;-68
2022/09/01 10:07:36;;;;;;;16.00;14.57;;;;;;;24.35;46.28;94641.19;5010581;28;20226;-69
2022/09/01 10:10:30;;;;;;;15.93;14.35;;;;;;;24.33;46.72;94635.25;5007051;28;20296;-68
2022/09/01 10:12:57;;;;;;;15.85;14.35;;;;;;;24.87;46.22;94637.34;5003575;28;20246;-68
2022/09/01 10:15:27;;;;;;;15.18;13.70;;;;;;;25.15;45.92;94630.13;5008588;28;20210;-68
2022/09/01 10:17:57;;;;;;;14.18;12.68;;;;;;;24.88;44.82;94625.50;5008108;28;20251;-68
2022/09/01 10:20:25;;;;;;;14.38;12.80;;;;;;;24.62;45.46;94627.09;5013577;28;20235;-68
2022/09/01 10:22:51;;;;;;;14.43;11.95;;;;;;;24.38;45.52;94626.47;5013317;28;20265;-68
2022/09/01 10:25:20;;;;;;;15.68;12.25;;;;;;;24.30;46.33;94625.00;5009140;28;20250;-68
2022/09/01 10:28:01;;;;;;;15.02;13.63;;;;;;;24.28;45.54;94620.94;5009987;28;20206;-68
2022/09/01 10:30:28;;;;;;;14.27;13.05;;;;;;;24.26;46.31;94620.34;5009789;28;20209;-68
2022/09/01 10:32:58;;;;;;;13.52;12.30;;;;;;;24.29;46.16;94623.34;5005622;28;20218;-68
2022/09/01 10:35:31;;;;;;;14.07;12.77;;;;;;;24.25;46.30;94611.50;5004930;28;20274;-68
2022/09/01 10:37:59;;;;;;;13.68;12.27;;;;;;;24.20;46.20;94617.59;5009356;28;20250;-65
2022/09/01 10:40:35;;;;;;;13.30;12.00;;;;;;;24.18;46.51;94619.72;5009533;28;20829;-71
2022/09/01 10:43:24;;;;;;;14.35;12.35;;;;;;;24.30;46.33;94613.41;5008329;28;20245;-69
2022/09/01 10:45:50;;;;;;;14.07;12.35;;;;;;;24.34;46.39;94617.25;4948471;28;20212;-71
2022/09/01 10:48:33;;;;;;;13.70;12.35;;;;;;;24.35;46.46;94614.34;4947676;28;20231;-71
2022/09/01 10:51:11;;;;;;;14.70;13.20;;;;;;;24.59;45.71;94620.31;4947551;28;20232;-67
2022/09/01 10:53:45;;;;;;;14.18;12.82;;;;;;;24.71;45.40;94617.50;4967051;28;20277;-71
2022/09/01 10:56:35;;;;;;;13.95;12.52;;;;;;;24.99;43.73;94611.13;4951141;28;20223;-72
2022/09/01 10:59:06;;;;;;;14.30;12.90;;;;;;;25.08;43.77;94612.31;4945772;28;20236;-73
2022/09/01 11:01:40;;;;;;;14.98;13.57;;;;;;;25.24;43.80;94605.25;4964815;28;20367;-70
2022/09/01 11:04:09;;;;;;;15.05;13.65;;;;;;;25.53;43.41;94610.38;4955049;28;20230;-68
2022/09/01 11:06:40;;;;;;;15.40;13.82;;;;;;;25.79;43.01;94600.63;4965879;28;20254;-70
2022/09/01 11:09:15;;;;;;;14.60;13.07;;;;;;;26.00;41.47;94595.44;4966033;28;20212;-71
2022/09/01 11:11:48;;;;;;;15.02;13.68;;;;;;;26.28;41.99;94591.59;4962715;28;20303;-71
2022/09/01 11:14:34;;;;;;;13.43;12.23;;;;;;;26.37;41.47;94585.44;4954951;28;20248;-73
2022/09/01 11:17:25;;;;;;;14.07;12.65;;;;;;;26.49;40.64;94587.09;4957464;28;20227;-71
2022/09/01 11:19:56;;;;;;;13.85;12.50;;;;;;;26.79;40.01;94597.28;4963627;28;20239;-72
2022/09/01 11:22:28;;;;;;;14.20;12.90;;;;;;;26.81;39.99;94587.00;4958228;28;20227;-71
2022/09/01 11:25:32;;;;;;;12.85;11.63;;;;;;;26.78;39.93;94587.53;4995861;28;20316;-71
2022/09/01 11:28:21;;;;;;;12.88;11.57;;;;;;;26.93;40.01;94584.09;4992224;28;20293;-70
2022/09/01 11:30:59;;;;;;;13.45;12.13;;;;;;;26.89;40.17;94586.53;4949310;28;20936;-72
2022/09/01 11:33:30;;;;;;;12.68;11.43;;;;;;;27.32;39.35;94583.69;4948325;28;20254;-71